createdAt,value
2018-08-06T00:05:30.872Z,24.2
2018-08-06T00:22:21.120Z,23.5
2018-08-06T00:39:11.658Z,22.9
2018-08-06T00:56:01.822Z,23.2
2018-08-06T01:12:52.849Z,22.9
2018-08-06T01:29:42.420Z,23.2
2018-08-06T01:46:33.042Z,23.5
2018-08-06T02:03:24.070Z,23.5
2018-08-06T02:20:14.475Z,23.2
2018-08-06T02:37:05.200Z,23.5
2018-08-06T02:53:55.892Z,23.5
2018-08-06T03:10:46.369Z,23.2
2018-08-06T03:27:36.894Z,23.2
2018-08-06T03:44:27.441Z,23.5
2018-08-06T04:01:17.868Z,23.2
2018-08-06T04:14:46.052Z,22.6
2018-08-06T04:31:35.827Z,22.6
2018-08-06T04:48:25.329Z,22.2
2018-08-06T05:05:14.279Z,21.9
2018-08-06T05:10:17.069Z,22.6
2018-08-06T05:27:06.618Z,22.6
2018-08-06T05:40:34.474Z,23.2
2018-08-06T05:54:02.844Z,23.8
2018-08-06T06:10:54.275Z,24.2
2018-08-06T06:22:42.044Z,23.5
2018-08-06T06:39:33.060Z,24.2
2018-08-06T06:49:40.031Z,24.8
2018-08-06T07:06:32.234Z,24.5
2018-08-06T07:23:23.884Z,24.5
2018-08-06T07:40:16.047Z,24.8
2018-08-06T07:57:08.527Z,25.1
2018-08-06T08:14:01.139Z,25.4
2018-08-06T08:30:54.762Z,25.8
2018-08-06T08:47:47.692Z,25.8
2018-08-06T09:03:00.090Z,26.4
2018-08-06T09:19:54.230Z,26.4
2018-08-06T09:36:48.674Z,26.7
2018-08-06T09:53:43.586Z,27.0
2018-08-06T10:10:38.781Z,27.4
2018-08-06T10:27:34.365Z,27.7
2018-08-06T10:44:30.237Z,28.0
2018-08-06T11:01:26.210Z,28.0
2018-08-06T11:18:22.370Z,28.0
2018-08-06T11:35:18.760Z,28.3
2018-08-06T11:52:15.534Z,28.6
2018-08-06T12:09:12.591Z,29.0
2018-08-06T12:26:09.814Z,29.0
2018-08-06T12:43:07.202Z,29.3
2018-08-06T13:00:04.896Z,29.3
2018-08-06T13:17:02.467Z,29.6
2018-08-06T13:34:00.479Z,29.6
2018-08-06T13:50:58.667Z,29.6
2018-08-06T14:07:56.996Z,29.6
2018-08-06T14:24:55.294Z,29.6
2018-08-06T14:41:53.510Z,29.9
2018-08-06T14:58:52.196Z,29.9
2018-08-06T15:15:50.698Z,29.9
2018-08-06T15:32:50.085Z,30.2
2018-08-06T15:49:48.388Z,30.2
2018-08-06T16:06:47.026Z,30.2
2018-08-06T16:23:45.753Z,29.9
2018-08-06T16:40:44.161Z,29.9
2018-08-06T16:57:42.374Z,29.9
2018-08-06T17:14:40.565Z,29.6
2018-08-06T17:31:38.760Z,29.6
2018-08-06T17:48:36.868Z,29.3
2018-08-06T18:05:34.920Z,29.3
2018-08-06T18:22:32.739Z,29.0
2018-08-06T18:39:30.466Z,29.0
2018-08-06T18:56:28.111Z,28.6
2018-08-06T19:13:25.541Z,28.6
2018-08-06T19:30:22.418Z,28.3
2018-08-06T19:47:19.411Z,28.3
2018-08-06T20:04:16.220Z,28.0
2018-08-06T20:21:12.880Z,27.7
2018-08-06T20:38:09.383Z,27.7
2018-08-06T20:55:05.682Z,27.7
2018-08-06T21:12:01.019Z,27.7
2018-08-06T21:28:56.328Z,27.4
2018-08-06T21:45:51.473Z,27.0
2018-08-06T22:02:46.017Z,27.0
2018-08-06T22:19:40.723Z,26.7
2018-08-06T22:36:35.230Z,26.7
2018-08-06T22:53:29.774Z,26.7
2018-08-06T23:10:24.141Z,26.4
2018-08-06T23:27:18.287Z,26.4
2018-08-06T23:44:12.436Z,26.4
